Архив погоды в Агзу

Метеограмма Агзу
Среда, 23 Мая
Время местн. Темп Ветер Видим Явления Облачность нижн/средн/верх Атм. давл. Влжн Точка росы ВНГО R Сост. почвы Tg s
Напр Скр Прв ур.ст ур.м изм
04:00 - +6.2° штиль 0 - - - - 738 753 -0.8 97% +5.7° - - - - -
01:00 +9.6° штиль 0 - 20 км - ясно 739 754 -0.5 89% +7.8° более 2.5 км - - - -
Вторник, 22 Мая
Время местн. Темп Ветер Видим Явления Облачность нижн/средн/верх Атм. давл. Влжн Точка росы ВНГО R Сост. почвы Tg s
Напр Скр Прв ур.ст ур.м изм
22:00 - +16.1° В,С-В 2 - - - - 739 754 +0.3 67% +9.9° - - - - -
19:00 +24.2° Ю 3 - 50 км - переменная облачность 739 753 -1.1 32% +6.6° 1.5 км 0 - - -
16:00 - +27.3° Ю,Ю-В 4 - - - - 740 754 -2.9 27% +6.9° - - - - -
13:00 +23.3° Ю 1 - более 50 км - переменная облачность 743 757 -3.8 50% +12.2° 1.5 км - - - -
10:00 - +13.7° штиль 0 - - - - 747 762 -0.9 77% +9.7° - - - - -
07:00 +8.6° штиль 0 - 50 км - облачно 748 763 -0.3 94% +7.7° 1 км 1 Влажная (без луж) - -
04:00 - +7.6° штиль 0 - - - - 748 763 -0.3 95% +6.9° - - - - -
01:00 +7.4° С,С-В 1 - 20 км - переменная облачность 748 764 +1.1 97% +7° 1.5 км - - - -
Понедельник, 21 Мая
Время местн. Темп Ветер Видим Явления Облачность нижн/средн/верх Атм. давл. Влжн Точка росы ВНГО R Сост. почвы Tg s
Напр Скр Прв ур.ст ур.м изм
22:00 - +10.2° В 1 - - - - 748 764 +1.2 95% +9.4° - - - - -
19:00 +14.7° В 1 - 10 км слабый ливневый дождь облачно 747 762 +1.7 87% +12.6° 1 км 3 - - -
16:00 - +15.5° В,С-В 1 - - - - 746 760 +1.5 88% +13.6° - - - - -
13:00 +23.9° С,С-В 3 - 50 км гроза без осадков облачно 744 759 -1.7 27% +3.8° 1 км - - - -
10:00 - +13.2° штиль 0 - - - - 746 761 -1.1 59% +5.3° - - - - -
07:00 +3.2° штиль 0 - более 50 км - облачно 747 762 -0.8 93% +2.2° более 2.5 км 0 Влажная (без луж) +3° -
04:00 - +2.1° штиль 0 - - - - 748 763 -0.4 96% +1.5° - - - - -
01:00 +5° штиль 0 - 20 км - переменная облачность 748 763 -0.6 84% +2.5° более 2.5 км - - - -
Воскресенье, 20 Мая
Время местн. Темп Ветер Видим Явления Облачность нижн/средн/верх Атм. давл. Влжн Точка росы ВНГО R Сост. почвы Tg s
Напр Скр Прв ур.ст ур.м изм
22:00 - +11.4° В,Ю-В 2 - - - - 749 764 +0.9 55% +2.6° - - - - -
19:00 +15.7° Ю,Ю-В 4 11 более 50 км - облачно 748 763 -0.1 41% +2.5° 1.5 км 0 - - -
16:00 - +18.7° Ю,Ю-В 3 12 - - - 748 762 -0.2 38% +4.1° - - - - -
13:00 +22.4° Ю,Ю-В 3 - 50 км - облачно 748 762 -2.3 32% +4.8° 1.5 км - - - -
10:00 - +15.3° Ю-В 1 - - - - 750 765 -0.9 49% +4.7° - - - - -
07:00 +3.6° штиль 0 - 50 км - облачно 751 767 +0.8 94% +2.8° 1.5 км 0 Влажная (без луж) - -
04:00 - +2.3° штиль 0 - - - - 750 766 +1.1 95% +1.6° - - - - -
01:00 +7.3° С,С-В 1 - 20 км - ясно 749 765 +1.7 79% +3.9° более 2.5 км - - - -